createdAt,value
2022-09-11T00:01:07.696Z,17.200001
2022-09-11T00:04:32.863Z,17.190001
2022-09-11T00:07:58.077Z,17.16
2022-09-11T00:11:23.348Z,17.17
2022-09-11T00:14:48.451Z,17.17
2022-09-11T00:18:13.669Z,17.18
2022-09-11T00:21:38.889Z,17.190001
2022-09-11T00:25:04.084Z,17.18
2022-09-11T00:28:29.317Z,17.16
2022-09-11T00:31:54.480Z,17.15
2022-09-11T00:35:19.688Z,17.15
2022-09-11T00:38:44.924Z,17.15
2022-09-11T00:42:10.155Z,17.15
2022-09-11T00:45:35.491Z,17.15
2022-09-11T00:49:00.652Z,17.16
2022-09-11T00:52:25.884Z,17.16
2022-09-11T00:55:51.116Z,17.17
2022-09-11T00:59:16.327Z,17.17
2022-09-11T01:02:41.551Z,17.190001
2022-09-11T01:06:06.741Z,17.18
2022-09-11T01:09:31.972Z,17.190001
2022-09-11T01:12:57.180Z,17.200001
2022-09-11T01:16:22.433Z,17.209999
2022-09-11T01:19:47.590Z,17.190001
2022-09-11T01:23:12.791Z,17.190001
2022-09-11T01:26:37.994Z,17.18
2022-09-11T01:30:03.172Z,17.16
2022-09-11T01:33:28.370Z,17.129999
2022-09-11T01:36:53.629Z,17.110001
2022-09-11T01:40:18.805Z,17.110001
2022-09-11T01:43:44.014Z,17.09
2022-09-11T01:47:09.211Z,17.09
2022-09-11T01:50:34.442Z,17.1
2022-09-11T01:53:59.690Z,17.120001
2022-09-11T01:57:24.836Z,17.139999
2022-09-11T02:00:50.127Z,17.139999
2022-09-11T02:04:15.301Z,17.129999
2022-09-11T02:07:40.510Z,17.129999
2022-09-11T02:11:05.721Z,17.110001
2022-09-11T02:14:30.921Z,17.09
2022-09-11T02:17:56.119Z,17.040001
2022-09-11T02:21:21.311Z,16.99
2022-09-11T02:24:46.517Z,16.93
2022-09-11T02:28:11.707Z,16.92
2022-09-11T02:31:36.940Z,16.889999
2022-09-11T02:35:02.118Z,16.879999
2022-09-11T02:38:27.348Z,16.870001
2022-09-11T02:41:52.563Z,16.85
2022-09-11T02:45:17.817Z,16.870001
2022-09-11T02:48:42.988Z,16.870001
2022-09-11T02:52:08.241Z,16.85
2022-09-11T02:55:33.492Z,16.83
2022-09-11T02:58:58.662Z,16.799999
2022-09-11T03:02:23.901Z,16.780001
2022-09-11T03:05:49.076Z,16.77
2022-09-11T03:09:14.242Z,16.790001
2022-09-11T03:12:39.468Z,16.799999
2022-09-11T03:16:04.712Z,16.799999
2022-09-11T03:19:29.921Z,16.809999
2022-09-11T03:22:55.062Z,16.790001
2022-09-11T03:26:20.253Z,16.790001
2022-09-11T03:29:45.472Z,16.780001
2022-09-11T03:33:10.688Z,16.790001
2022-09-11T03:36:35.948Z,16.73
2022-09-11T03:40:01.176Z,16.690001
2022-09-11T03:43:26.308Z,16.639999
2022-09-11T03:46:51.470Z,16.58
2022-09-11T03:50:16.685Z,16.559999
2022-09-11T03:53:42.065Z,16.52
2022-09-11T03:57:07.110Z,16.459999
2022-09-11T04:00:32.345Z,16.389999
2022-09-11T04:03:57.591Z,16.299999
2022-09-11T04:07:22.752Z,16.200001
2022-09-11T04:10:47.967Z,16.200001
2022-09-11T04:14:13.143Z,16.219999
2022-09-11T04:17:38.362Z,16.209999
2022-09-11T04:21:03.541Z,16.26
2022-09-11T04:24:28.732Z,16.25
2022-09-11T04:27:53.992Z,16.24
2022-09-11T04:31:19.198Z,16.209999
2022-09-11T04:34:44.354Z,16.190001
2022-09-11T04:38:09.598Z,16.16
2022-09-11T04:41:34.798Z,16.15
2022-09-11T04:45:00.049Z,16.17
2022-09-11T04:48:25.203Z,16.190001
2022-09-11T04:51:50.413Z,16.17
2022-09-11T04:55:15.616Z,16.18
2022-09-11T04:58:40.895Z,16.200001
2022-09-11T05:02:06.191Z,16.200001
2022-09-11T05:05:31.319Z,16.24
2022-09-11T05:08:56.545Z,16.280001
2022-09-11T05:12:21.748Z,16.299999
2022-09-11T05:15:46.936Z,16.33
2022-09-11T05:19:12.190Z,16.32
2022-09-11T05:22:37.365Z,16.32
2022-09-11T05:26:02.554Z,16.27
2022-09-11T05:29:31.659Z,16.26
2022-09-11T05:32:53.030Z,16.309999
2022-09-11T05:36:18.247Z,16.299999
2022-09-11T05:39:43.489Z,16.299999
2022-09-11T05:43:08.646Z,16.309999
2022-09-11T05:46:33.913Z,16.34
2022-09-11T05:49:59.149Z,16.35
2022-09-11T05:53:24.389Z,16.379999
2022-09-11T05:56:49.541Z,16.440001
2022-09-11T06:00:14.726Z,16.48
2022-09-11T06:03:39.906Z,16.530001
2022-09-11T06:07:05.141Z,16.58
2022-09-11T06:10:30.442Z,16.59
2022-09-11T06:13:55.596Z,16.549999
2022-09-11T06:17:20.795Z,16.540001
2022-09-11T06:20:46.013Z,16.549999
2022-09-11T06:24:11.232Z,16.549999
2022-09-11T06:27:36.489Z,16.559999
2022-09-11T06:31:01.732Z,16.57
2022-09-11T06:34:26.962Z,16.6
2022-09-11T06:37:52.165Z,16.620001
2022-09-11T06:41:17.349Z,16.65
2022-09-11T06:44:42.579Z,16.68
2022-09-11T06:48:07.731Z,16.700001
2022-09-11T06:51:32.929Z,16.719999
2022-09-11T06:54:58.103Z,16.780001
2022-09-11T06:58:23.300Z,16.82
2022-09-11T07:01:48.584Z,16.84
2022-09-11T07:05:13.646Z,16.889999
2022-09-11T07:08:38.828Z,16.940001
2022-09-11T07:12:04.006Z,16.959999
2022-09-11T07:15:29.198Z,16.950001
2022-09-11T07:18:54.385Z,16.950001
2022-09-11T07:22:19.532Z,16.969999
2022-09-11T07:25:44.701Z,16.92
2022-09-11T07:29:09.887Z,16.9
2022-09-11T07:32:35.071Z,16.91
2022-09-11T07:36:00.259Z,16.950001
2022-09-11T07:39:25.403Z,17.01
2022-09-11T07:42:50.589Z,17.049999
2022-09-11T07:46:15.782Z,17.049999
2022-09-11T07:49:40.957Z,17.07
2022-09-11T07:53:06.158Z,17.129999
2022-09-11T07:56:31.302Z,17.17
2022-09-11T07:59:56.492Z,17.190001
2022-09-11T08:03:21.688Z,17.23
2022-09-11T08:06:46.865Z,17.27
2022-09-11T08:10:26.450Z,17.290001
2022-09-11T08:13:37.218Z,17.32
2022-09-11T08:17:02.418Z,17.360001
2022-09-11T08:20:27.609Z,17.4
2022-09-11T08:23:52.778Z,17.440001
2022-09-11T08:27:18.030Z,17.469999
2022-09-11T08:30:43.204Z,17.5
2022-09-11T08:34:08.366Z,17.57
2022-09-11T08:37:33.545Z,17.57
2022-09-11T08:40:58.731Z,17.5
2022-09-11T08:44:23.921Z,17.49
2022-09-11T08:47:49.080Z,17.540001
2022-09-11T08:51:14.255Z,17.610001
2022-09-11T08:54:39.413Z,17.66
2022-09-11T08:58:04.588Z,17.68
2022-09-11T09:01:29.819Z,17.690001
2022-09-11T09:04:54.932Z,17.690001
2022-09-11T09:08:20.111Z,17.700001
2022-09-11T09:11:45.332Z,17.690001
2022-09-11T09:15:10.560Z,17.67
2022-09-11T09:18:35.755Z,17.76
2022-09-11T09:22:00.918Z,17.870001
2022-09-11T09:25:26.113Z,17.92
2022-09-11T09:28:51.294Z,17.99
2022-09-11T09:32:16.467Z,18.059999
2022-09-11T09:35:41.678Z,18.09
2022-09-11T09:39:06.819Z,18.120001
2022-09-11T09:42:31.997Z,18.24
2022-09-11T09:45:57.205Z,18.35
2022-09-11T09:49:22.354Z,18.51
2022-09-11T09:52:47.538Z,18.58
2022-09-11T09:56:12.681Z,18.59
2022-09-11T09:59:37.857Z,18.530001
2022-09-11T10:03:03.074Z,18.51
2022-09-11T10:06:28.255Z,18.549999
2022-09-11T10:09:53.475Z,18.629999
2022-09-11T10:13:19.692Z,18.76
2022-09-11T10:16:43.785Z,18.860001
2022-09-11T10:20:08.966Z,18.85
2022-09-11T10:23:34.124Z,18.82
2022-09-11T10:26:59.323Z,18.719999
2022-09-11T10:30:24.489Z,18.58
2022-09-11T10:33:49.653Z,18.52
2022-09-11T10:37:14.829Z,18.5
2022-09-11T10:40:40.006Z,18.469999
2022-09-11T10:44:05.214Z,18.49
2022-09-11T10:47:30.356Z,18.549999
2022-09-11T10:50:55.555Z,18.84
2022-09-11T10:54:20.746Z,19.17
2022-09-11T10:57:45.924Z,19.34
2022-09-11T11:01:12.008Z,19.450001
2022-09-11T11:04:37.153Z,19.52
2022-09-11T11:08:02.350Z,19.48
2022-09-11T11:11:27.539Z,19.35
2022-09-11T11:14:52.727Z,19.200001
2022-09-11T11:18:17.985Z,19.049999
2022-09-11T11:21:43.152Z,19.01
2022-09-11T11:25:08.357Z,19.02
2022-09-11T11:28:33.547Z,19.200001
2022-09-11T11:31:58.709Z,19.370001
2022-09-11T11:35:24.045Z,19.52
2022-09-11T11:38:49.214Z,19.48
2022-09-11T11:42:14.380Z,19.379999
2022-09-11T11:45:39.578Z,19.25
2022-09-11T11:49:04.905Z,19.139999
2022-09-11T11:52:30.175Z,19.01
2022-09-11T11:55:55.333Z,18.91
2022-09-11T11:59:20.545Z,18.83
2022-09-11T12:02:45.755Z,18.73
2022-09-11T12:06:10.916Z,18.65
2022-09-11T12:09:36.120Z,18.6
2022-09-11T12:13:01.280Z,18.58
2022-09-11T12:16:26.515Z,18.6
2022-09-11T12:19:51.659Z,18.610001
2022-09-11T12:23:16.845Z,18.6
2022-09-11T12:26:42.114Z,18.610001
2022-09-11T12:30:07.270Z,18.639999
2022-09-11T12:33:32.435Z,18.709999
2022-09-11T12:36:57.620Z,18.799999
2022-09-11T12:40:22.800Z,18.879999
2022-09-11T12:43:48.016Z,18.92
2022-09-11T12:47:13.140Z,18.93
2022-09-11T12:50:38.312Z,18.91
2022-09-11T12:54:03.493Z,18.92
2022-09-11T12:57:28.671Z,18.870001
2022-09-11T13:00:53.885Z,18.83
2022-09-11T13:04:19.054Z,18.85
2022-09-11T13:07:44.264Z,18.889999
2022-09-11T13:11:12.580Z,19.01
2022-09-11T13:14:34.593Z,19.120001
2022-09-11T13:17:59.804Z,19.24
2022-09-11T13:21:26.558Z,19.43
2022-09-11T13:24:50.133Z,19.66
2022-09-11T13:28:20.352Z,19.91
2022-09-11T13:31:40.509Z,20.17
2022-09-11T13:35:05.723Z,20.280001
2022-09-11T13:38:30.867Z,20.209999
2022-09-11T13:41:56.047Z,20.059999
2022-09-11T13:45:21.204Z,19.77
2022-09-11T13:48:46.385Z,19.440001
2022-09-11T13:52:11.602Z,19.17
2022-09-11T13:55:36.737Z,18.950001
2022-09-11T13:59:02.883Z,18.73
2022-09-11T14:02:27.150Z,18.639999
2022-09-11T14:05:52.306Z,18.66
2022-09-11T14:09:17.512Z,18.709999
2022-09-11T14:12:42.676Z,18.77
2022-09-11T14:16:07.940Z,18.790001
2022-09-11T14:19:33.055Z,18.82
2022-09-11T14:22:58.278Z,18.870001
2022-09-11T14:26:23.490Z,18.92
2022-09-11T14:29:48.647Z,18.959999
2022-09-11T15:03:33.384Z,17.139999
2022-09-11T15:06:58.587Z,18.059999
2022-09-11T15:10:23.795Z,18.25
2022-09-11T15:14:11.271Z,18.42
2022-09-11T15:17:14.287Z,18.48
2022-09-11T15:20:39.525Z,18.51
2022-09-11T15:24:04.807Z,18.610001
2022-09-11T15:27:30.031Z,18.65
2022-09-11T15:30:55.249Z,18.67
2022-09-11T15:34:20.440Z,18.68
2022-09-11T15:37:45.745Z,18.690001
2022-09-11T15:41:10.824Z,18.709999
2022-09-11T15:44:36.039Z,18.76
2022-09-11T15:48:01.223Z,18.85
2022-09-11T15:51:26.468Z,18.870001
2022-09-11T15:54:51.679Z,18.879999
2022-09-11T15:58:16.820Z,18.77
2022-09-11T16:01:42.200Z,18.629999
2022-09-11T16:05:07.345Z,18.540001
2022-09-11T16:08:32.533Z,18.51
2022-09-11T16:11:57.748Z,18.5
2022-09-11T16:15:22.919Z,18.469999
2022-09-11T16:18:48.080Z,18.5
2022-09-11T16:22:13.238Z,18.52
2022-09-11T16:25:38.424Z,18.530001
2022-09-11T16:29:04.194Z,18.530001
2022-09-11T16:32:29.427Z,18.530001
2022-09-11T16:35:54.499Z,18.540001
2022-09-11T16:39:19.704Z,18.549999
2022-09-11T16:42:44.848Z,18.549999
2022-09-11T16:46:10.019Z,18.610001
2022-09-11T16:49:44.911Z,18.68
2022-09-11T16:53:00.721Z,18.690001
2022-09-11T16:56:25.899Z,18.690001
2022-09-11T16:59:51.088Z,18.67
2022-09-11T17:03:16.258Z,18.65
2022-09-11T17:06:41.392Z,18.639999
2022-09-11T17:10:20.868Z,18.65
2022-09-11T17:13:47.084Z,18.639999
2022-09-11T17:17:12.256Z,18.620001
2022-09-11T17:20:37.456Z,18.6
2022-09-11T17:24:02.604Z,18.540001
2022-09-11T17:27:27.810Z,18.48
2022-09-11T17:30:52.994Z,18.41
2022-09-11T17:34:18.204Z,18.309999
2022-09-11T17:37:43.415Z,18.209999
2022-09-11T17:41:08.603Z,18.15
2022-09-11T17:44:33.867Z,18.07
2022-09-11T17:47:59.279Z,18.02
2022-09-11T17:51:24.455Z,17.940001
2022-09-11T17:54:49.641Z,17.889999
2022-09-11T17:58:14.815Z,17.799999
2022-09-11T18:01:40.054Z,17.690001
2022-09-11T18:05:05.205Z,17.6
2022-09-11T18:08:30.427Z,17.52
2022-09-11T18:11:55.686Z,17.459999
2022-09-11T18:15:20.843Z,17.42
2022-09-11T18:18:46.088Z,17.360001
2022-09-11T18:22:11.304Z,17.280001
2022-09-11T18:25:36.499Z,17.200001
2022-09-11T18:29:01.711Z,17.15
2022-09-11T18:32:26.861Z,17.110001
2022-09-11T18:35:52.089Z,17.09
2022-09-11T18:39:17.288Z,17.030001
2022-09-11T18:42:42.516Z,16.98
2022-09-11T18:46:07.754Z,16.92
2022-09-11T18:49:32.906Z,16.85
2022-09-11T18:53:00.029Z,16.799999
2022-09-11T18:56:23.355Z,16.77
2022-09-11T18:59:48.564Z,16.74
2022-09-11T19:03:15.430Z,16.700001
2022-09-11T19:06:38.956Z,16.66
2022-09-11T19:10:04.138Z,16.65
2022-09-11T19:13:29.328Z,16.629999
2022-09-11T19:16:54.523Z,16.620001
2022-09-11T19:20:19.723Z,16.629999
2022-09-11T19:23:45.073Z,16.6
2022-09-11T19:27:10.175Z,16.559999
2022-09-11T19:30:36.126Z,16.52
2022-09-11T19:34:00.565Z,16.48
2022-09-11T19:37:25.807Z,16.450001
2022-09-11T19:40:50.996Z,16.41
2022-09-11T19:44:16.244Z,16.4
2022-09-11T19:47:41.464Z,16.4
2022-09-11T19:51:06.694Z,16.4
2022-09-11T19:54:31.958Z,16.42
2022-09-11T19:57:57.191Z,16.450001
2022-09-11T20:01:22.411Z,16.5
2022-09-11T20:04:47.659Z,16.559999
2022-09-11T20:08:16.058Z,16.559999
2022-09-11T20:11:38.148Z,16.540001
2022-09-11T20:15:03.378Z,16.48
2022-09-11T20:18:28.614Z,16.43
2022-09-11T20:21:53.823Z,16.35
2022-09-11T20:25:19.031Z,16.299999
2022-09-11T20:28:44.259Z,16.209999
2022-09-11T20:32:09.478Z,16.18
2022-09-11T20:35:34.709Z,16.16
2022-09-11T20:39:00.556Z,16.139999
2022-09-11T20:42:25.131Z,16.1
2022-09-11T20:45:50.345Z,16.040001
2022-09-11T20:49:15.509Z,16
2022-09-11T20:52:40.707Z,15.94
2022-09-11T20:56:05.904Z,15.93
2022-09-11T20:59:31.077Z,15.94
2022-09-11T21:02:56.279Z,15.94
2022-09-11T21:06:25.482Z,15.93
2022-09-11T21:09:46.734Z,15.94
2022-09-11T21:13:11.892Z,15.93
2022-09-11T21:16:37.089Z,15.89
2022-09-11T21:20:02.309Z,15.89
2022-09-11T21:23:27.479Z,15.88
2022-09-11T21:26:52.690Z,15.85
2022-09-11T21:30:17.910Z,15.82
2022-09-11T21:33:43.161Z,15.79
2022-09-11T21:37:08.321Z,15.77
2022-09-11T21:40:33.459Z,15.76
2022-09-11T21:43:58.677Z,15.75
2022-09-11T21:47:23.881Z,15.75
2022-09-11T21:50:49.081Z,15.7
2022-09-11T21:54:14.334Z,15.68
2022-09-11T21:57:39.503Z,15.66
2022-09-11T22:01:04.706Z,15.63
2022-09-11T22:04:29.880Z,15.63
2022-09-11T22:07:55.046Z,15.6
2022-09-11T22:11:20.228Z,15.58
2022-09-11T22:14:45.403Z,15.6
2022-09-11T22:18:10.586Z,15.61
2022-09-11T22:21:35.783Z,15.64
2022-09-11T22:25:01.007Z,15.66
2022-09-11T22:28:26.241Z,15.66
2022-09-11T22:31:51.429Z,15.64
2022-09-11T22:35:16.625Z,15.63
2022-09-11T22:38:41.827Z,15.61
2022-09-11T22:42:07.001Z,15.62
2022-09-11T22:45:32.233Z,15.65
2022-09-11T22:48:57.381Z,15.67
2022-09-11T22:52:22.595Z,15.69
2022-09-11T22:55:47.789Z,15.7
2022-09-11T22:59:12.985Z,15.71
2022-09-11T23:02:38.178Z,15.75
2022-09-11T23:06:03.350Z,15.8
2022-09-11T23:09:28.535Z,15.81
2022-09-11T23:12:53.757Z,15.82
2022-09-11T23:16:19.002Z,15.84
2022-09-11T23:19:44.148Z,15.85
2022-09-11T23:23:09.323Z,15.87
2022-09-11T23:26:34.494Z,15.89
2022-09-11T23:29:59.693Z,15.9
2022-09-11T23:33:24.870Z,15.88
2022-09-11T23:36:50.075Z,15.87
2022-09-11T23:40:15.269Z,15.84
2022-09-11T23:43:40.424Z,15.79
2022-09-11T23:47:05.585Z,15.72
2022-09-11T23:50:30.747Z,15.67
2022-09-11T23:53:55.963Z,15.62
2022-09-11T23:57:21.149Z,15.58
